Observations for GUERNSEY AIRPORT, United Kingdom (EGJB)

EGJB 242020Z 23015KT 4000 1000S R27/P1500 VCFG BR SCT000 BKN001 10/10 Q1014 
EGJB 241950Z 22018KT 0700 R27/1000 FG BKN000 BKN001 11/11 Q1014 
EGJB 241920Z 23016KT 0250 R27/0400 FG BKN000 11/11 Q1014
EGJB 241850Z 24016KT 2500 -DZ BR FEW001 BKN002 11/11 Q1014  
EGJB 241820Z 24016KT 9999 BKN005 BKN011 11/10 Q1014 
EGJB 241750Z 25015KT 9999 -RA FEW010 BKN016 11/10 Q1014 
EGJB 241720Z 25014KT 9999 BKN018 12/10 Q1014
EGJB 241650Z 24014KT 9999 BKN020 12/10 Q1014
EGJB 241620Z 24014KT 9999 BKN022 12/10 Q1015
EGJB 241550Z 24016KT 9999 FEW022 BKN028 13/10 Q1015 
EGJB 241520Z 22010KT 9999 FEW025 BKN032 12/10 Q1015 
EGJB 241450Z 21013KT 9999 FEW024 BKN030 13/10 Q1016 
EGJB 241420Z 21011KT 9999 FEW010 BKN030 12/10 Q1016 
EGJB 241350Z 20010KT 9999 FEW010 BKN025 11/10 Q1016 
EGJB 241320Z 20010KT 9999 FEW008 BKN022 11/10 Q1017 
EGJB 241250Z 19010KT 9999 FEW008 BKN022 12/11 Q1017 
EGJB 241220Z 19010KT 9999 FEW006 BKN020 11/11 Q1017 
EGJB 241150Z 19010KT 6000 FEW001 BKN002 BKN004 11/11 Q1018  
EGJB 241120Z 19010KT 6000 2400E -DZ VCFG FEW000 SCT001 BKN002 10/10 Q1018   
EGJB 241050Z 20010KT 1600 0400SE R27/1000 BCFG BKN000 BKN001 11/11 Q1018
EGJB 241020Z 19011KT 0100 R27/0150 -DZ FG OVC000 10/10 Q1018
EGJB 240950Z 20010KT 0400 R27/P1500 -DZ FG BKN000 10/10 Q1018   
EGJB 240920Z 21011KT 8000 FEW001 BKN002 10/10 Q1018 
EGJB 240850Z 22012KT 0100 R27/0175 FG OVC000 10/10 Q1018
EGJB 240820Z 22012KT 0100 R27/0175 FG OVC000 11/11 Q1019
EGJB 240750Z 22012KT 0100 R27/0150 FG OVC000 10/10 Q1018
EGJB 240720Z 23010KT 0100 R27/0175 -DZ FG OVC000 10/10 Q1018
EGJB 240650Z 24011KT 0100 R27/0200 -DZ FG OVC000 10/10 Q1019
EGJB 240620Z 24011KT 0100 R27/0200 -DZ FG OVC000 10/10 Q1019
EGJB 240550Z 24012KT 0200 R27/0250 -DZ FG OVC000 10/10 Q1018
EGJB 240520Z 24013KT 0200 R27/0300 FG OVC000 10/10 Q1018
EGJB 240450Z 24013KT 0200 R27/0225 FG OVC000 10/10 Q1018
EGJB 240420Z 24013KT 0300 R27/0275 -DZ FG BKN000 10/10 Q1018
EGJB 240350Z 24013KT 0300 -DZ FG BKN000 10/10 Q1018 
EGJB 240320Z 24012KT 1200 BR FEW000 BKN001 10/10 Q1018  
EGJB 240250Z 24012KT 1800 BR BKN002 BKN010 10/10 Q1019  
EGJB 231950Z 24011KT CAVOK 09/08 Q1020